Главная страница
METAR-TAF:

METAR-TAF

Аэропорты :

Meierwik

Глюксбург, Германия

широта: 54-50N, долгота: 009-30E, высота над уровнем моря: 27 м

Текущие метеонаблюдения

Эта сводка был подготовлена 59 минут назад, в 19:20 UTC
Ветер 10 Узел от восточно-северо-восточный с порывами до 20 Узел
Температура 17°C
Влажность 94%
Давление 1007 hPa
Видимость: 6000 м

METAR: ETGG 121920Z AUTO 06010G20KT 6000 // ////// 17/16 Q1007 ///

Время: 22:19 (20:19 UTC)


TAF: отсутствует

Метеонаблюдения и прогнозы для более 4000 аэропортов (сводки METAR и TAF).

Имеющиеся станции представлены на карте желтыми и красными точками.

Чтобы увидеть название станции, наведите на нее мышь.

Затем щелкните, чтобы увидеть метеонаблюдения и метеопрогнозы.

Управление картой: чтобы увеличить масштаб, щелкните зеленые кнопки с черным крестиком; чтобы уменьшить масштаб, щелкните зеленую кнопку с тире; для просмотра соседних карт щелкайте зеленые стрелки.


METAR-TAF: